createdAt,value
2023-02-17T00:00:03.837Z,0.029
2023-02-17T00:05:03.989Z,0.164
2023-02-17T00:10:03.896Z,0.015
2023-02-17T00:15:01.114Z,0.123
2023-02-17T00:20:01.126Z,0.123
2023-02-17T00:25:01.104Z,0.147
2023-02-17T00:30:01.188Z,0.165
2023-02-17T00:35:01.129Z,0.259
2023-02-17T00:40:01.170Z,0.01
2023-02-17T00:45:01.117Z,0.003
2023-02-17T00:50:01.159Z,0.041
2023-02-17T00:55:01.115Z,0.17400000000000002
2023-02-17T01:00:01.204Z,0.147
2023-02-17T01:05:01.350Z,0.025
2023-02-17T01:10:01.114Z,0
2023-02-17T01:15:01.156Z,0
2023-02-17T01:20:01.132Z,0.006
2023-02-17T01:25:01.166Z,0.032
2023-02-17T01:30:01.285Z,0.024
2023-02-17T01:35:01.200Z,0
2023-02-17T01:40:01.193Z,0.096
2023-02-17T01:45:01.224Z,0.015
2023-02-17T01:50:01.279Z,0
2023-02-17T01:55:01.345Z,0
2023-02-17T02:00:01.331Z,0
2023-02-17T02:05:01.291Z,0
2023-02-17T02:10:01.316Z,0
2023-02-17T02:15:01.609Z,0
2023-02-17T02:20:01.312Z,0
2023-02-17T02:25:01.359Z,0
2023-02-17T02:30:01.383Z,0
2023-02-17T02:35:01.468Z,0
2023-02-17T02:40:01.416Z,0
2023-02-17T02:45:01.363Z,0
2023-02-17T02:50:01.439Z,0.07100000000000001
2023-02-17T02:55:01.316Z,0.258
2023-02-17T03:00:01.299Z,0
2023-02-17T03:05:01.277Z,0
2023-02-17T03:10:01.307Z,0
2023-02-17T03:15:01.305Z,0
2023-02-17T03:20:01.287Z,0.101
2023-02-17T03:25:01.293Z,0.129
2023-02-17T03:30:01.477Z,0.125
2023-02-17T03:35:01.292Z,0.123
2023-02-17T03:40:01.265Z,0.122
2023-02-17T03:45:01.325Z,0.01
2023-02-17T03:50:01.230Z,0.041
2023-02-17T03:55:01.307Z,0.133
2023-02-17T04:00:01.284Z,0.164
2023-02-17T04:05:01.318Z,0.161
2023-02-17T04:10:02.701Z,0.14400000000000002
2023-02-17T04:15:01.390Z,0.114
2023-02-17T04:20:01.277Z,0.109
2023-02-17T04:25:01.305Z,0.108
2023-02-17T04:30:01.385Z,0.108
2023-02-17T04:35:01.306Z,0.114
2023-02-17T04:40:01.414Z,0.006
2023-02-17T04:45:01.332Z,0.004
2023-02-17T04:50:01.325Z,0
2023-02-17T04:55:01.322Z,0
2023-02-17T05:00:01.379Z,0.064
2023-02-17T05:05:01.450Z,0.107
2023-02-17T05:10:01.341Z,0.115
2023-02-17T05:15:01.359Z,0.116
2023-02-17T05:20:01.358Z,0.127
2023-02-17T05:25:01.428Z,0.124
2023-02-17T05:30:01.452Z,0.116
2023-02-17T05:35:01.421Z,0.007
2023-02-17T05:40:01.354Z,0.125
2023-02-17T05:45:01.356Z,0.166
2023-02-17T05:50:01.439Z,0.128
2023-02-17T05:55:01.322Z,0.121
2023-02-17T06:00:01.553Z,0.116
2023-02-17T06:05:01.537Z,0.084
2023-02-17T06:10:01.469Z,0.229
2023-02-17T06:15:01.414Z,0.039
2023-02-17T06:20:01.505Z,0.169
2023-02-17T06:25:01.417Z,0.16
2023-02-17T06:30:01.525Z,0.056
2023-02-17T06:35:01.481Z,0.073
2023-02-17T06:40:01.439Z,0.621
2023-02-17T06:45:01.436Z,0.28300000000000003
2023-02-17T06:50:01.420Z,0
2023-02-17T06:55:01.683Z,0
2023-02-17T07:00:01.500Z,0.112
2023-02-17T07:05:01.476Z,0.396
2023-02-17T07:10:01.424Z,0.425
2023-02-17T07:15:01.511Z,0.516
2023-02-17T07:20:01.478Z,0.554
2023-02-17T07:25:01.453Z,0.5740000000000001
2023-02-17T07:30:01.550Z,0.56
2023-02-17T07:35:01.656Z,0.582
2023-02-17T07:40:01.490Z,0.585
2023-02-17T07:45:01.468Z,0.561
2023-02-17T07:50:01.580Z,0.556
2023-02-17T07:55:01.468Z,0.521
2023-02-17T08:00:01.572Z,0.534
2023-02-17T08:05:01.556Z,0.516
2023-02-17T08:10:01.583Z,0.704
2023-02-17T08:15:01.756Z,0.785
2023-02-17T08:20:05.950Z,0.507
2023-02-17T08:25:01.514Z,4.66
2023-02-17T08:30:01.605Z,27.996000000000002
2023-02-17T08:35:01.520Z,30.435000000000002
2023-02-17T08:40:01.564Z,47.800000000000004
2023-02-17T08:45:01.584Z,52.041000000000004
2023-02-17T08:50:01.543Z,53.994
2023-02-17T08:55:01.586Z,44.416000000000004
2023-02-17T09:00:01.644Z,37.466
2023-02-17T09:05:01.721Z,58.934000000000005
2023-02-17T09:10:01.560Z,46.662
2023-02-17T09:15:01.579Z,44.539
2023-02-17T09:20:01.685Z,36.001
2023-02-17T09:25:01.670Z,37.731
2023-02-17T09:30:01.660Z,26.039
2023-02-17T09:35:01.608Z,28.875
2023-02-17T09:40:01.620Z,24.267
2023-02-17T09:45:01.720Z,29.559
2023-02-17T09:50:01.676Z,29.675
2023-02-17T09:55:01.689Z,40.835
2023-02-17T10:00:01.770Z,35.175000000000004
2023-02-17T10:05:01.775Z,47.335
2023-02-17T10:10:01.728Z,39.819
2023-02-17T10:15:01.711Z,48.906
2023-02-17T10:20:01.966Z,45.847
2023-02-17T10:25:01.788Z,47.817
2023-02-17T10:30:01.765Z,56.166000000000004
2023-02-17T10:35:01.729Z,58.211
2023-02-17T10:40:01.759Z,82.387
2023-02-17T10:45:01.758Z,75.058
2023-02-17T10:50:01.758Z,59.896
2023-02-17T10:55:04.669Z,67.029
2023-02-17T11:00:01.789Z,73.928
2023-02-17T11:05:01.858Z,88.565
2023-02-17T11:10:01.789Z,77.882
2023-02-17T11:15:01.853Z,127.5
2023-02-17T11:20:01.811Z,167.667
2023-02-17T11:25:01.802Z,190.163
2023-02-17T11:30:01.878Z,200.281
2023-02-17T11:35:01.852Z,232.185
2023-02-17T11:40:01.864Z,280.836
2023-02-17T11:45:01.865Z,496.367
2023-02-17T11:50:01.807Z,400.46500000000003
2023-02-17T11:55:01.871Z,279.01
2023-02-17T12:00:01.939Z,205.023
2023-02-17T12:05:01.914Z,176.705
2023-02-17T12:10:01.859Z,260.714
2023-02-17T12:15:01.861Z,391.504
2023-02-17T12:20:01.847Z,356.267
2023-02-17T12:25:01.858Z,308.399
2023-02-17T12:30:01.959Z,462.12600000000003
2023-02-17T12:35:01.848Z,311.315
2023-02-17T12:40:01.865Z,321.627
2023-02-17T12:45:01.876Z,245.886
2023-02-17T12:50:01.966Z,231.542
2023-02-17T12:55:01.884Z,306.13800000000003
2023-02-17T13:00:01.888Z,436.451
2023-02-17T13:05:01.884Z,466.971
2023-02-17T13:20:02.056Z,747.895
2023-02-17T13:25:01.846Z,711.519
2023-02-17T13:30:01.884Z,877.198
2023-02-17T13:35:01.888Z,488.03000000000003
2023-02-17T13:40:01.805Z,303.505
2023-02-17T13:45:01.857Z,245.54500000000002
2023-02-17T13:50:01.824Z,274.154
2023-02-17T13:55:01.818Z,267.161
2023-02-17T14:00:01.937Z,756.5980000000001
2023-02-17T14:05:02.057Z,505.117
2023-02-17T14:10:01.788Z,638.736
2023-02-17T14:15:01.851Z,850.484
2023-02-17T14:20:01.975Z,572.09
2023-02-17T14:25:01.816Z,574.865
2023-02-17T14:30:03.832Z,598.311
2023-02-17T14:35:01.871Z,455.423
2023-02-17T14:40:02.056Z,710.7760000000001
2023-02-17T14:45:01.918Z,467.942
2023-02-17T14:50:01.805Z,306.608
2023-02-17T14:55:01.876Z,219.448
2023-02-17T15:00:01.896Z,37.474000000000004
2023-02-17T15:05:01.899Z,95.60900000000001
2023-02-17T15:10:01.861Z,113.423
2023-02-17T15:15:01.826Z,30.538
2023-02-17T15:20:01.973Z,27.306
2023-02-17T15:25:01.897Z,36.575
2023-02-17T15:30:01.942Z,22.344
2023-02-17T15:35:01.895Z,0.663
2023-02-17T15:40:01.894Z,0.64
2023-02-17T15:45:01.889Z,0.631
2023-02-17T15:50:01.932Z,0.636
2023-02-17T15:55:01.848Z,0.642
2023-02-17T16:00:02.019Z,0.6930000000000001
2023-02-17T16:05:01.901Z,28.664
2023-02-17T16:10:01.958Z,33.161
2023-02-17T16:15:01.966Z,5.947
2023-02-17T16:20:01.949Z,1.006
2023-02-17T16:25:01.944Z,0.979
2023-02-17T16:30:02.101Z,0.8150000000000001
2023-02-17T16:35:01.985Z,0.782
2023-02-17T16:40:01.930Z,0.768
2023-02-17T16:45:01.985Z,0.754
2023-02-17T16:50:02.074Z,0.5730000000000001
2023-02-17T16:55:02.007Z,0.501
2023-02-17T17:00:02.085Z,0.754
2023-02-17T17:05:01.942Z,0.6940000000000001
2023-02-17T17:10:15.682Z,0.782
2023-02-17T17:15:01.974Z,0.8210000000000001
2023-02-17T17:20:01.933Z,0.746
2023-02-17T17:25:01.977Z,0.769
2023-02-17T17:30:01.983Z,0.78
2023-02-17T17:35:02.052Z,0.781
2023-02-17T17:40:01.981Z,0.784
2023-02-17T17:45:01.995Z,0.778
2023-02-17T17:50:01.992Z,0.77
2023-02-17T17:55:02.024Z,0.777
2023-02-17T18:00:02.108Z,0.839
2023-02-17T18:05:02.109Z,0.793
2023-02-17T18:10:02.041Z,0.891
2023-02-17T18:15:01.982Z,0.262
2023-02-17T18:20:02.105Z,0.148
2023-02-17T18:25:02.011Z,0.146
2023-02-17T18:30:02.293Z,0.146
2023-02-17T18:35:02.071Z,0.012
2023-02-17T18:40:02.058Z,0.011
2023-02-17T18:45:02.124Z,0.012
2023-02-17T18:50:02.046Z,0.006
2023-02-17T18:55:02.064Z,0.006
2023-02-17T19:00:02.076Z,0.001
2023-02-17T19:05:02.020Z,0
2023-02-17T19:10:02.082Z,0.006
2023-02-17T19:15:02.152Z,0.007
2023-02-17T19:20:01.992Z,0.001
2023-02-17T19:25:02.031Z,0.008
2023-02-17T19:30:02.217Z,0.009000000000000001
2023-02-17T19:35:02.124Z,0.179
2023-02-17T19:40:02.122Z,0.003
2023-02-17T19:45:02.211Z,0
2023-02-17T19:50:02.121Z,0
2023-02-17T19:55:02.118Z,0.29
2023-02-17T20:00:02.175Z,0.668
2023-02-17T20:05:02.173Z,0.7010000000000001
2023-02-17T20:10:02.128Z,0.9500000000000001
2023-02-17T20:15:02.186Z,0.9550000000000001
2023-02-17T20:20:02.300Z,0.51
2023-02-17T20:25:02.180Z,0.001
2023-02-17T20:30:02.594Z,0
2023-02-17T20:35:02.854Z,0
2023-02-17T20:40:02.738Z,0
2023-02-17T20:45:02.811Z,0
2023-02-17T20:50:02.251Z,0
2023-02-17T20:55:02.290Z,0.002
2023-02-17T21:00:02.332Z,0
2023-02-17T21:05:02.268Z,0.001
2023-02-17T21:10:02.304Z,0.055
2023-02-17T21:15:02.404Z,0.123
2023-02-17T21:20:02.353Z,0.193
2023-02-17T21:25:02.346Z,0.054
2023-02-17T21:30:02.419Z,0
2023-02-17T21:35:02.357Z,0
2023-02-17T21:40:02.656Z,0
2023-02-17T21:45:02.358Z,0
2023-02-17T21:50:02.370Z,0
2023-02-17T21:55:02.396Z,0
2023-02-17T22:00:02.452Z,0
2023-02-17T22:05:02.205Z,0.005
2023-02-17T22:10:02.244Z,0.013000000000000001
2023-02-17T22:15:02.209Z,0.042
2023-02-17T22:20:02.349Z,0.059000000000000004
2023-02-17T22:25:02.230Z,0.049
2023-02-17T22:30:02.349Z,0.031
2023-02-17T22:35:02.211Z,0.016
2023-02-17T22:40:02.254Z,0
2023-02-17T22:45:02.235Z,0
2023-02-17T22:50:02.332Z,0
2023-02-17T22:55:02.275Z,0
2023-02-17T23:00:02.765Z,0.007
2023-02-17T23:05:02.302Z,0
2023-02-17T23:10:02.274Z,0
2023-02-17T23:15:02.287Z,0.231
2023-02-17T23:20:02.591Z,0.395
2023-02-17T23:25:02.275Z,0.386
2023-02-17T23:30:02.364Z,0.312
2023-02-17T23:35:02.308Z,0.029
2023-02-17T23:40:02.345Z,0.044
2023-02-17T23:45:02.302Z,0.02
2023-02-17T23:50:02.308Z,0.029
2023-02-17T23:55:02.299Z,0.041
